<?xml version="1.0" encoding="UTF-8" standalone="no" ?>
<gpx xmlns="http://www.topografix.com/GPX/1/1" xmlns:xsi="http://www.w3.org/2001/XMLSchema-instance" xsi:schemaLocation="http://www.topografix.com/GPX/1/1 http://www.topografix.com/GPX/1/1/gpx.xsd" version="1.1" creator="VisuGPX - https://www.visugpx.com">
  <metadata>
    <name>LE-MONT-DU-CHAT</name>
    <desc><![CDATA[Circuit en Aller Retour
Départ Le BOURGET DU LAC Parking du Belvédère du Mont du Chat

Belvédère du Molard Noir (Faire Demi tour)
Belvédère du Mont du Chat]]></desc>
  </metadata>
  <trk>
    <name><![CDATA[30-AOU-15 15:15:35]]></name>
    <extensions>
      <line xmlns="http://www.topografix.com/GPX/gpx_style/0/2">
        <color>0000FF</color>
        <opacity>1</opacity>
        <width>4</width>
      </line>
    </extensions>
    <trkseg>
      <trkpt lat="45.66046" lon="5.82109">
        <ele>1422.41</ele>
        <time>2015-08-30T09:58:01Z</time>
      </trkpt>
      <trkpt lat="45.66046" lon="5.82109">
        <ele>1418.56</ele>
        <time>2015-08-30T09:58:02Z</time>
      </trkpt>
      <trkpt lat="45.66044" lon="5.82107">
        <ele>1414.72</ele>
        <time>2015-08-30T09:58:09Z</time>
      </trkpt>
      <trkpt lat="45.66044" lon="5.82106">
        <ele>1422.41</ele>
        <time>2015-08-30T09:58:10Z</time>
      </trkpt>
      <trkpt lat="45.66044" lon="5.82106">
        <ele>1418.56</ele>
        <time>2015-08-30T09:58:11Z</time>
      </trkpt>
      <trkpt lat="45.66044" lon="5.82105">
        <ele>1508.45</ele>
        <time>2015-08-30T09:58:12Z</time>
      </trkpt>
      <trkpt lat="45.66044" lon="5.82105">
        <ele>1508.45</ele>
        <time>2015-08-30T09:58:13Z</time>
      </trkpt>
      <trkpt lat="45.66051" lon="5.82099">
        <ele>1508.45</ele>
        <time>2015-08-30T09:58:32Z</time>
      </trkpt>
      <trkpt lat="45.6605" lon="5.82099">
        <ele>1508.93</ele>
        <time>2015-08-30T09:58:48Z</time>
      </trkpt>
      <trkpt lat="45.66048" lon="5.82101">
        <ele>1508.45</ele>
        <time>2015-08-30T09:59:07Z</time>
      </trkpt>
      <trkpt lat="45.66049" lon="5.82109">
        <ele>1509.89</ele>
        <time>2015-08-30T09:59:20Z</time>
      </trkpt>
      <trkpt lat="45.66048" lon="5.82115">
        <ele>1512.29</ele>
        <time>2015-08-30T09:59:33Z</time>
      </trkpt>
      <trkpt lat="45.66048" lon="5.82119">
        <ele>1512.29</ele>
        <time>2015-08-30T09:59:46Z</time>
      </trkpt>
      <trkpt lat="45.66049" lon="5.82119">
        <ele>1512.77</ele>
        <time>2015-08-30T09:59:52Z</time>
      </trkpt>
      <trkpt lat="45.66057" lon="5.82129">
        <ele>1513.25</ele>
        <time>2015-08-30T10:00:06Z</time>
      </trkpt>
      <trkpt lat="45.66059" lon="5.82133">
        <ele>1513.25</ele>
        <time>2015-08-30T10:00:12Z</time>
      </trkpt>
      <trkpt lat="45.66061" lon="5.82136">
        <ele>1513.73</ele>
        <time>2015-08-30T10:00:16Z</time>
      </trkpt>
      <trkpt lat="45.66062" lon="5.82137">
        <ele>1513.25</ele>
        <time>2015-08-30T10:00:19Z</time>
      </trkpt>
      <trkpt lat="45.66068" lon="5.82147">
        <ele>1513.25</ele>
        <time>2015-08-30T10:00:31Z</time>
      </trkpt>
      <trkpt lat="45.66077" lon="5.82159">
        <ele>1514.21</ele>
        <time>2015-08-30T10:00:44Z</time>
      </trkpt>
      <trkpt lat="45.66077" lon="5.82168">
        <ele>1513.73</ele>
        <time>2015-08-30T10:00:56Z</time>
      </trkpt>
      <trkpt lat="45.66079" lon="5.8217">
        <ele>1513.25</ele>
        <time>2015-08-30T10:01:10Z</time>
      </trkpt>
      <trkpt lat="45.66078" lon="5.82171">
        <ele>1513.25</ele>
        <time>2015-08-30T10:01:35Z</time>
      </trkpt>
      <trkpt lat="45.66078" lon="5.82171">
        <ele>1513.25</ele>
        <time>2015-08-30T10:02:04Z</time>
      </trkpt>
      <trkpt lat="45.66085" lon="5.82172">
        <ele>1512.29</ele>
        <time>2015-08-30T10:02:24Z</time>
      </trkpt>
      <trkpt lat="45.66097" lon="5.82175">
        <ele>1513.25</ele>
        <time>2015-08-30T10:02:41Z</time>
      </trkpt>
      <trkpt lat="45.66095" lon="5.82175">
        <ele>1513.25</ele>
        <time>2015-08-30T10:03:02Z</time>
      </trkpt>
      <trkpt lat="45.66098" lon="5.8217">
        <ele>1512.29</ele>
        <time>2015-08-30T10:03:23Z</time>
      </trkpt>
      <trkpt lat="45.66097" lon="5.82172">
        <ele>1511.81</ele>
        <time>2015-08-30T10:03:47Z</time>
      </trkpt>
      <trkpt lat="45.66098" lon="5.82176">
        <ele>1513.25</ele>
        <time>2015-08-30T10:03:52Z</time>
      </trkpt>
      <trkpt lat="45.66098" lon="5.82174">
        <ele>1512.77</ele>
        <time>2015-08-30T10:04:11Z</time>
      </trkpt>
      <trkpt lat="45.66097" lon="5.82174">
        <ele>1511.33</ele>
        <time>2015-08-30T10:04:26Z</time>
      </trkpt>
      <trkpt lat="45.66095" lon="5.82168">
        <ele>1511.81</ele>
        <time>2015-08-30T10:04:41Z</time>
      </trkpt>
      <trkpt lat="45.66096" lon="5.82169">
        <ele>1511.81</ele>
        <time>2015-08-30T10:04:57Z</time>
      </trkpt>
      <trkpt lat="45.66095" lon="5.82174">
        <ele>1512.29</ele>
        <time>2015-08-30T10:05:08Z</time>
      </trkpt>
      <trkpt lat="45.66095" lon="5.82168">
        <ele>1510.85</ele>
        <time>2015-08-30T10:05:25Z</time>
      </trkpt>
      <trkpt lat="45.66096" lon="5.82171">
        <ele>1510.85</ele>
        <time>2015-08-30T10:05:47Z</time>
      </trkpt>
      <trkpt lat="45.66097" lon="5.82174">
        <ele>1510.85</ele>
        <time>2015-08-30T10:06:16Z</time>
      </trkpt>
      <trkpt lat="45.66095" lon="5.82172">
        <ele>1510.85</ele>
        <time>2015-08-30T10:06:42Z</time>
      </trkpt>
      <trkpt lat="45.66096" lon="5.82169">
        <ele>1509.89</ele>
        <time>2015-08-30T10:07:05Z</time>
      </trkpt>
      <trkpt lat="45.66096" lon="5.82172">
        <ele>1509.89</ele>
        <time>2015-08-30T10:07:24Z</time>
      </trkpt>
      <trkpt lat="45.66094" lon="5.82175">
        <ele>1509.41</ele>
        <time>2015-08-30T10:07:49Z</time>
      </trkpt>
      <trkpt lat="45.66093" lon="5.82177">
        <ele>1508.45</ele>
        <time>2015-08-30T10:08:17Z</time>
      </trkpt>
      <trkpt lat="45.66093" lon="5.82171">
        <ele>1508.93</ele>
        <time>2015-08-30T10:08:43Z</time>
      </trkpt>
      <trkpt lat="45.66085" lon="5.82167">
        <ele>1508.93</ele>
        <time>2015-08-30T10:09:00Z</time>
      </trkpt>
      <trkpt lat="45.66081" lon="5.82162">
        <ele>1507.97</ele>
        <time>2015-08-30T10:09:17Z</time>
      </trkpt>
      <trkpt lat="45.66075" lon="5.82162">
        <ele>1507.97</ele>
        <time>2015-08-30T10:09:38Z</time>
      </trkpt>
      <trkpt lat="45.66073" lon="5.82165">
        <ele>1509.41</ele>
        <time>2015-08-30T10:09:53Z</time>
      </trkpt>
      <trkpt lat="45.66073" lon="5.82164">
        <ele>1507.48</ele>
        <time>2015-08-30T10:10:17Z</time>
      </trkpt>
      <trkpt lat="45.66074" lon="5.82164">
        <ele>1507.97</ele>
        <time>2015-08-30T10:10:30Z</time>
      </trkpt>
      <trkpt lat="45.66074" lon="5.82163">
        <ele>1507.97</ele>
        <time>2015-08-30T10:10:57Z</time>
      </trkpt>
      <trkpt lat="45.66074" lon="5.82162">
        <ele>1507</ele>
        <time>2015-08-30T10:11:01Z</time>
      </trkpt>
      <trkpt lat="45.66074" lon="5.8215">
        <ele>1506.52</ele>
        <time>2015-08-30T10:11:17Z</time>
      </trkpt>
      <trkpt lat="45.66072" lon="5.82147">
        <ele>1505.08</ele>
        <time>2015-08-30T10:11:21Z</time>
      </trkpt>
      <trkpt lat="45.6607" lon="5.82145">
        <ele>1507</ele>
        <time>2015-08-30T10:11:23Z</time>
      </trkpt>
      <trkpt lat="45.66061" lon="5.82136">
        <ele>1505.56</ele>
        <time>2015-08-30T10:11:35Z</time>
      </trkpt>
      <trkpt lat="45.6606" lon="5.82134">
        <ele>1506.04</ele>
        <time>2015-08-30T10:11:38Z</time>
      </trkpt>
      <trkpt lat="45.66053" lon="5.82126">
        <ele>1505.08</ele>
        <time>2015-08-30T10:11:48Z</time>
      </trkpt>
      <trkpt lat="45.66052" lon="5.82123">
        <ele>1506.04</ele>
        <time>2015-08-30T10:11:50Z</time>
      </trkpt>
      <trkpt lat="45.66048" lon="5.82122">
        <ele>1504.12</ele>
        <time>2015-08-30T10:11:54Z</time>
      </trkpt>
      <trkpt lat="45.66043" lon="5.82117">
        <ele>1506.04</ele>
        <time>2015-08-30T10:12:01Z</time>
      </trkpt>
      <trkpt lat="45.66039" lon="5.82113">
        <ele>1504.6</ele>
        <time>2015-08-30T10:12:11Z</time>
      </trkpt>
      <trkpt lat="45.66033" lon="5.82098">
        <ele>1504.6</ele>
        <time>2015-08-30T10:12:23Z</time>
      </trkpt>
      <trkpt lat="45.6603" lon="5.82093">
        <ele>1503.64</ele>
        <time>2015-08-30T10:12:31Z</time>
      </trkpt>
      <trkpt lat="45.66025" lon="5.82083">
        <ele>1503.64</ele>
        <time>2015-08-30T10:12:46Z</time>
      </trkpt>
      <trkpt lat="45.66016" lon="5.82073">
        <ele>1502.68</ele>
        <time>2015-08-30T10:12:59Z</time>
      </trkpt>
      <trkpt lat="45.66007" lon="5.82062">
        <ele>1501.72</ele>
        <time>2015-08-30T10:13:12Z</time>
      </trkpt>
      <trkpt lat="45.65998" lon="5.82054">
        <ele>1501.24</ele>
        <time>2015-08-30T10:13:24Z</time>
      </trkpt>
      <trkpt lat="45.65986" lon="5.82056">
        <ele>1500.76</ele>
        <time>2015-08-30T10:13:39Z</time>
      </trkpt>
      <trkpt lat="45.6597" lon="5.82061">
        <ele>1500.76</ele>
        <time>2015-08-30T10:13:58Z</time>
      </trkpt>
      <trkpt lat="45.65956" lon="5.8207">
        <ele>1499.31</ele>
        <time>2015-08-30T10:14:17Z</time>
      </trkpt>
      <trkpt lat="45.65937" lon="5.82087">
        <ele>1498.35</ele>
        <time>2015-08-30T10:14:36Z</time>
      </trkpt>
      <trkpt lat="45.65932" lon="5.82093">
        <ele>1497.87</ele>
        <time>2015-08-30T10:14:43Z</time>
      </trkpt>
      <trkpt lat="45.65924" lon="5.82108">
        <ele>1496.91</ele>
        <time>2015-08-30T10:14:59Z</time>
      </trkpt>
      <trkpt lat="45.65909" lon="5.82118">
        <ele>1495.47</ele>
        <time>2015-08-30T10:15:15Z</time>
      </trkpt>
      <trkpt lat="45.65895" lon="5.82129">
        <ele>1494.51</ele>
        <time>2015-08-30T10:15:32Z</time>
      </trkpt>
      <trkpt lat="45.65886" lon="5.82135">
        <ele>1495.47</ele>
        <time>2015-08-30T10:15:48Z</time>
      </trkpt>
      <trkpt lat="45.65879" lon="5.82146">
        <ele>1495.47</ele>
        <time>2015-08-30T10:16:09Z</time>
      </trkpt>
      <trkpt lat="45.65874" lon="5.82142">
        <ele>1495.47</ele>
        <time>2015-08-30T10:16:25Z</time>
      </trkpt>
      <trkpt lat="45.65859" lon="5.82135">
        <ele>1494.51</ele>
        <time>2015-08-30T10:16:40Z</time>
      </trkpt>
      <trkpt lat="45.65844" lon="5.82134">
        <ele>1494.03</ele>
        <time>2015-08-30T10:16:54Z</time>
      </trkpt>
      <trkpt lat="45.65835" lon="5.8213">
        <ele>1493.55</ele>
        <time>2015-08-30T10:17:08Z</time>
      </trkpt>
      <trkpt lat="45.65836" lon="5.82126">
        <ele>1494.03</ele>
        <time>2015-08-30T10:17:29Z</time>
      </trkpt>
      <trkpt lat="45.65846" lon="5.8212">
        <ele>1492.58</ele>
        <time>2015-08-30T10:17:42Z</time>
      </trkpt>
      <trkpt lat="45.65853" lon="5.82118">
        <ele>1491.14</ele>
        <time>2015-08-30T10:17:48Z</time>
      </trkpt>
      <trkpt lat="45.65855" lon="5.82118">
        <ele>1491.62</ele>
        <time>2015-08-30T10:17:49Z</time>
      </trkpt>
      <trkpt lat="45.65872" lon="5.82114">
        <ele>1490.66</ele>
        <time>2015-08-30T10:18:02Z</time>
      </trkpt>
      <trkpt lat="45.65882" lon="5.82118">
        <ele>1492.58</ele>
        <time>2015-08-30T10:18:14Z</time>
      </trkpt>
      <trkpt lat="45.65883" lon="5.82118">
        <ele>1486.34</ele>
        <time>2015-08-30T10:18:15Z</time>
      </trkpt>
      <trkpt lat="45.65884" lon="5.82119">
        <ele>1495.95</ele>
        <time>2015-08-30T10:18:16Z</time>
      </trkpt>
      <trkpt lat="45.65885" lon="5.8212">
        <ele>1492.1</ele>
        <time>2015-08-30T10:18:17Z</time>
      </trkpt>
      <trkpt lat="45.65896" lon="5.82122">
        <ele>1492.58</ele>
        <time>2015-08-30T10:18:29Z</time>
      </trkpt>
      <trkpt lat="45.65912" lon="5.82115">
        <ele>1494.51</ele>
        <time>2015-08-30T10:18:44Z</time>
      </trkpt>
      <trkpt lat="45.65913" lon="5.82114">
        <ele>1494.03</ele>
        <time>2015-08-30T10:18:45Z</time>
      </trkpt>
      <trkpt lat="45.65928" lon="5.82097">
        <ele>1495.47</ele>
        <time>2015-08-30T10:19:01Z</time>
      </trkpt>
      <trkpt lat="45.65936" lon="5.82084">
        <ele>1496.91</ele>
        <time>2015-08-30T10:19:14Z</time>
      </trkpt>
      <trkpt lat="45.65953" lon="5.82073">
        <ele>1497.39</ele>
        <time>2015-08-30T10:19:32Z</time>
      </trkpt>
      <trkpt lat="45.65975" lon="5.82056">
        <ele>1498.35</ele>
        <time>2015-08-30T10:19:52Z</time>
      </trkpt>
      <trkpt lat="45.65995" lon="5.82057">
        <ele>1498.83</ele>
        <time>2015-08-30T10:20:09Z</time>
      </trkpt>
      <trkpt lat="45.66015" lon="5.82059">
        <ele>1497.39</ele>
        <time>2015-08-30T10:20:23Z</time>
      </trkpt>
      <trkpt lat="45.66018" lon="5.82061">
        <ele>1497.39</ele>
        <time>2015-08-30T10:20:28Z</time>
      </trkpt>
      <trkpt lat="45.66029" lon="5.82073">
        <ele>1496.43</ele>
        <time>2015-08-30T10:20:40Z</time>
      </trkpt>
      <trkpt lat="45.66039" lon="5.82086">
        <ele>1496.91</ele>
        <time>2015-08-30T10:20:53Z</time>
      </trkpt>
      <trkpt lat="45.66049" lon="5.82097">
        <ele>1496.91</ele>
        <time>2015-08-30T10:21:07Z</time>
      </trkpt>
      <trkpt lat="45.66047" lon="5.82096">
        <ele>1494.51</ele>
        <time>2015-08-30T10:21:24Z</time>
      </trkpt>
      <trkpt lat="45.66048" lon="5.82094">
        <ele>1495.95</ele>
        <time>2015-08-30T10:21:27Z</time>
      </trkpt>
      <trkpt lat="45.66049" lon="5.82091">
        <ele>1495.95</ele>
        <time>2015-08-30T10:21:36Z</time>
      </trkpt>
      <trkpt lat="45.6602" lon="5.82062">
        <ele>1494.51</ele>
        <time>2015-08-30T10:21:43Z</time>
      </trkpt>
      <trkpt lat="45.66002" lon="5.82053">
        <ele>1494.99</ele>
        <time>2015-08-30T10:21:47Z</time>
      </trkpt>
      <trkpt lat="45.65992" lon="5.82055">
        <ele>1495.95</ele>
        <time>2015-08-30T10:21:49Z</time>
      </trkpt>
      <trkpt lat="45.6598" lon="5.82056">
        <ele>1495.95</ele>
        <time>2015-08-30T10:21:51Z</time>
      </trkpt>
      <trkpt lat="45.65945" lon="5.82074">
        <ele>1495.47</ele>
        <time>2015-08-30T10:21:56Z</time>
      </trkpt>
      <trkpt lat="45.65909" lon="5.82115">
        <ele>1492.1</ele>
        <time>2015-08-30T10:22:02Z</time>
      </trkpt>
      <trkpt lat="45.65885" lon="5.82127">
        <ele>1490.18</ele>
        <time>2015-08-30T10:22:07Z</time>
      </trkpt>
      <trkpt lat="45.65869" lon="5.82116">
        <ele>1487.3</ele>
        <time>2015-08-30T10:22:13Z</time>
      </trkpt>
      <trkpt lat="45.6585" lon="5.82119">
        <ele>1488.74</ele>
        <time>2015-08-30T10:22:19Z</time>
      </trkpt>
      <trkpt lat="45.65841" lon="5.82127">
        <ele>1489.7</ele>
        <time>2015-08-30T10:22:26Z</time>
      </trkpt>
      <trkpt lat="45.65845" lon="5.82132">
        <ele>1492.1</ele>
        <time>2015-08-30T10:22:41Z</time>
      </trkpt>
      <trkpt lat="45.65845" lon="5.82133">
        <ele>1484.89</ele>
        <time>2015-08-30T10:22:53Z</time>
      </trkpt>
      <trkpt lat="45.65845" lon="5.82133">
        <ele>1484.89</ele>
        <time>2015-08-30T10:22:54Z</time>
      </trkpt>
      <trkpt lat="45.65845" lon="5.82133">
        <ele>1505.56</ele>
        <time>2015-08-30T11:10:48Z</time>
      </trkpt>
      <trkpt lat="45.6584" lon="5.8212">
        <ele>1505.56</ele>
        <time>2015-08-30T11:10:49Z</time>
      </trkpt>
      <trkpt lat="45.65837" lon="5.8213">
        <ele>1502.2</ele>
        <time>2015-08-30T11:11:02Z</time>
      </trkpt>
      <trkpt lat="45.65838" lon="5.8213">
        <ele>1498.83</ele>
        <time>2015-08-30T11:11:06Z</time>
      </trkpt>
      <trkpt lat="45.65838" lon="5.82129">
        <ele>1496.43</ele>
        <time>2015-08-30T11:11:09Z</time>
      </trkpt>
      <trkpt lat="45.65839" lon="5.82128">
        <ele>1494.51</ele>
        <time>2015-08-30T11:11:12Z</time>
      </trkpt>
      <trkpt lat="45.6584" lon="5.82128">
        <ele>1492.58</ele>
        <time>2015-08-30T11:11:14Z</time>
      </trkpt>
      <trkpt lat="45.65841" lon="5.82127">
        <ele>1489.22</ele>
        <time>2015-08-30T11:11:22Z</time>
      </trkpt>
      <trkpt lat="45.65841" lon="5.82127">
        <ele>1489.22</ele>
        <time>2015-08-30T11:11:23Z</time>
      </trkpt>
      <trkpt lat="45.65843" lon="5.82127">
        <ele>1484.89</ele>
        <time>2015-08-30T11:11:32Z</time>
      </trkpt>
      <trkpt lat="45.65843" lon="5.8213">
        <ele>1482.01</ele>
        <time>2015-08-30T11:11:47Z</time>
      </trkpt>
      <trkpt lat="45.65846" lon="5.82121">
        <ele>1479.13</ele>
        <time>2015-08-30T11:12:00Z</time>
      </trkpt>
      <trkpt lat="45.65856" lon="5.82118">
        <ele>1476.72</ele>
        <time>2015-08-30T11:12:15Z</time>
      </trkpt>
      <trkpt lat="45.65868" lon="5.82117">
        <ele>1474.32</ele>
        <time>2015-08-30T11:12:31Z</time>
      </trkpt>
      <trkpt lat="45.65881" lon="5.82121">
        <ele>1475.76</ele>
        <time>2015-08-30T11:12:49Z</time>
      </trkpt>
      <trkpt lat="45.65894" lon="5.82126">
        <ele>1476.24</ele>
        <time>2015-08-30T11:13:06Z</time>
      </trkpt>
      <trkpt lat="45.65897" lon="5.82119">
        <ele>1476.72</ele>
        <time>2015-08-30T11:13:25Z</time>
      </trkpt>
      <trkpt lat="45.65909" lon="5.82118">
        <ele>1477.68</ele>
        <time>2015-08-30T11:13:42Z</time>
      </trkpt>
      <trkpt lat="45.6593" lon="5.82102">
        <ele>1479.61</ele>
        <time>2015-08-30T11:14:03Z</time>
      </trkpt>
      <trkpt lat="45.65939" lon="5.82092">
        <ele>1480.09</ele>
        <time>2015-08-30T11:14:15Z</time>
      </trkpt>
      <trkpt lat="45.65952" lon="5.8207">
        <ele>1481.53</ele>
        <time>2015-08-30T11:14:37Z</time>
      </trkpt>
      <trkpt lat="45.65968" lon="5.82059">
        <ele>1482.01</ele>
        <time>2015-08-30T11:14:57Z</time>
      </trkpt>
      <trkpt lat="45.6598" lon="5.82057">
        <ele>1482.97</ele>
        <time>2015-08-30T11:15:20Z</time>
      </trkpt>
      <trkpt lat="45.66001" lon="5.82061">
        <ele>1483.45</ele>
        <time>2015-08-30T11:15:46Z</time>
      </trkpt>
      <trkpt lat="45.66018" lon="5.82075">
        <ele>1483.93</ele>
        <time>2015-08-30T11:16:12Z</time>
      </trkpt>
      <trkpt lat="45.66037" lon="5.8211">
        <ele>1485.85</ele>
        <time>2015-08-30T11:16:40Z</time>
      </trkpt>
      <trkpt lat="45.66043" lon="5.82115">
        <ele>1485.85</ele>
        <time>2015-08-30T11:16:47Z</time>
      </trkpt>
      <trkpt lat="45.66059" lon="5.82128">
        <ele>1485.85</ele>
        <time>2015-08-30T11:17:10Z</time>
      </trkpt>
      <trkpt lat="45.66064" lon="5.82133">
        <ele>1486.82</ele>
        <time>2015-08-30T11:17:22Z</time>
      </trkpt>
      <trkpt lat="45.66072" lon="5.82146">
        <ele>1487.78</ele>
        <time>2015-08-30T11:17:36Z</time>
      </trkpt>
      <trkpt lat="45.66083" lon="5.82152">
        <ele>1487.3</ele>
        <time>2015-08-30T11:17:48Z</time>
      </trkpt>
      <trkpt lat="45.66096" lon="5.82158">
        <ele>1487.3</ele>
        <time>2015-08-30T11:18:04Z</time>
      </trkpt>
      <trkpt lat="45.66111" lon="5.82158">
        <ele>1489.7</ele>
        <time>2015-08-30T11:18:21Z</time>
      </trkpt>
      <trkpt lat="45.66116" lon="5.82157">
        <ele>1489.22</ele>
        <time>2015-08-30T11:18:26Z</time>
      </trkpt>
      <trkpt lat="45.66124" lon="5.82152">
        <ele>1489.7</ele>
        <time>2015-08-30T11:18:42Z</time>
      </trkpt>
      <trkpt lat="45.66125" lon="5.82152">
        <ele>1489.7</ele>
        <time>2015-08-30T11:18:47Z</time>
      </trkpt>
      <trkpt lat="45.66137" lon="5.82156">
        <ele>1491.14</ele>
        <time>2015-08-30T11:19:02Z</time>
      </trkpt>
      <trkpt lat="45.66149" lon="5.82153">
        <ele>1491.14</ele>
        <time>2015-08-30T11:19:15Z</time>
      </trkpt>
      <trkpt lat="45.66159" lon="5.82153">
        <ele>1492.1</ele>
        <time>2015-08-30T11:19:32Z</time>
      </trkpt>
      <trkpt lat="45.66172" lon="5.82152">
        <ele>1493.55</ele>
        <time>2015-08-30T11:19:50Z</time>
      </trkpt>
      <trkpt lat="45.66185" lon="5.82148">
        <ele>1494.99</ele>
        <time>2015-08-30T11:20:07Z</time>
      </trkpt>
      <trkpt lat="45.66202" lon="5.8215">
        <ele>1495.47</ele>
        <time>2015-08-30T11:20:26Z</time>
      </trkpt>
      <trkpt lat="45.66215" lon="5.82152">
        <ele>1496.43</ele>
        <time>2015-08-30T11:20:42Z</time>
      </trkpt>
      <trkpt lat="45.66224" lon="5.82149">
        <ele>1497.39</ele>
        <time>2015-08-30T11:21:00Z</time>
      </trkpt>
      <trkpt lat="45.6623" lon="5.82148">
        <ele>1496.43</ele>
        <time>2015-08-30T11:21:24Z</time>
      </trkpt>
      <trkpt lat="45.66241" lon="5.82157">
        <ele>1494.51</ele>
        <time>2015-08-30T11:21:44Z</time>
      </trkpt>
      <trkpt lat="45.66251" lon="5.82155">
        <ele>1494.03</ele>
        <time>2015-08-30T11:22:00Z</time>
      </trkpt>
      <trkpt lat="45.66257" lon="5.82145">
        <ele>1493.06</ele>
        <time>2015-08-30T11:22:14Z</time>
      </trkpt>
      <trkpt lat="45.66269" lon="5.82146">
        <ele>1493.55</ele>
        <time>2015-08-30T11:22:29Z</time>
      </trkpt>
      <trkpt lat="45.66278" lon="5.82137">
        <ele>1492.58</ele>
        <time>2015-08-30T11:22:44Z</time>
      </trkpt>
      <trkpt lat="45.66282" lon="5.82126">
        <ele>1490.18</ele>
        <time>2015-08-30T11:23:01Z</time>
      </trkpt>
      <trkpt lat="45.66286" lon="5.82122">
        <ele>1489.7</ele>
        <time>2015-08-30T11:23:18Z</time>
      </trkpt>
      <trkpt lat="45.66287" lon="5.82123">
        <ele>1489.22</ele>
        <time>2015-08-30T11:23:37Z</time>
      </trkpt>
      <trkpt lat="45.66286" lon="5.82128">
        <ele>1489.7</ele>
        <time>2015-08-30T11:24:10Z</time>
      </trkpt>
      <trkpt lat="45.66289" lon="5.82128">
        <ele>1489.22</ele>
        <time>2015-08-30T11:24:45Z</time>
      </trkpt>
      <trkpt lat="45.6629" lon="5.82134">
        <ele>1489.7</ele>
        <time>2015-08-30T11:25:20Z</time>
      </trkpt>
      <trkpt lat="45.66292" lon="5.82134">
        <ele>1490.18</ele>
        <time>2015-08-30T11:25:49Z</time>
      </trkpt>
      <trkpt lat="45.66291" lon="5.82135">
        <ele>1489.7</ele>
        <time>2015-08-30T11:26:23Z</time>
      </trkpt>
      <trkpt lat="45.66293" lon="5.82132">
        <ele>1489.7</ele>
        <time>2015-08-30T11:26:53Z</time>
      </trkpt>
      <trkpt lat="45.66286" lon="5.82133">
        <ele>1490.18</ele>
        <time>2015-08-30T11:27:24Z</time>
      </trkpt>
      <trkpt lat="45.66289" lon="5.82136">
        <ele>1489.22</ele>
        <time>2015-08-30T11:27:54Z</time>
      </trkpt>
      <trkpt lat="45.66294" lon="5.82138">
        <ele>1489.22</ele>
        <time>2015-08-30T11:28:19Z</time>
      </trkpt>
      <trkpt lat="45.66296" lon="5.82138">
        <ele>1489.7</ele>
        <time>2015-08-30T11:28:54Z</time>
      </trkpt>
      <trkpt lat="45.6629" lon="5.82139">
        <ele>1489.7</ele>
        <time>2015-08-30T11:29:17Z</time>
      </trkpt>
      <trkpt lat="45.66281" lon="5.82137">
        <ele>1492.1</ele>
        <time>2015-08-30T11:29:34Z</time>
      </trkpt>
      <trkpt lat="45.66282" lon="5.82156">
        <ele>1493.55</ele>
        <time>2015-08-30T11:29:49Z</time>
      </trkpt>
      <trkpt lat="45.66282" lon="5.8217">
        <ele>1494.99</ele>
        <time>2015-08-30T11:30:04Z</time>
      </trkpt>
      <trkpt lat="45.66289" lon="5.82176">
        <ele>1494.99</ele>
        <time>2015-08-30T11:30:19Z</time>
      </trkpt>
      <trkpt lat="45.663" lon="5.82181">
        <ele>1493.55</ele>
        <time>2015-08-30T11:30:37Z</time>
      </trkpt>
      <trkpt lat="45.66311" lon="5.82187">
        <ele>1491.14</ele>
        <time>2015-08-30T11:30:55Z</time>
      </trkpt>
      <trkpt lat="45.66316" lon="5.82193">
        <ele>1489.22</ele>
        <time>2015-08-30T11:31:12Z</time>
      </trkpt>
      <trkpt lat="45.66325" lon="5.82197">
        <ele>1486.34</ele>
        <time>2015-08-30T11:31:31Z</time>
      </trkpt>
      <trkpt lat="45.66336" lon="5.82212">
        <ele>1484.89</ele>
        <time>2015-08-30T11:31:49Z</time>
      </trkpt>
      <trkpt lat="45.66339" lon="5.82212">
        <ele>1483.93</ele>
        <time>2015-08-30T11:31:54Z</time>
      </trkpt>
      <trkpt lat="45.66346" lon="5.82223">
        <ele>1483.45</ele>
        <time>2015-08-30T11:32:11Z</time>
      </trkpt>
      <trkpt lat="45.66353" lon="5.82226">
        <ele>1481.53</ele>
        <time>2015-08-30T11:32:27Z</time>
      </trkpt>
      <trkpt lat="45.66368" lon="5.82232">
        <ele>1481.05</ele>
        <time>2015-08-30T11:32:46Z</time>
      </trkpt>
      <trkpt lat="45.66384" lon="5.82238">
        <ele>1480.57</ele>
        <time>2015-08-30T11:33:04Z</time>
      </trkpt>
      <trkpt lat="45.66399" lon="5.8224">
        <ele>1477.68</ele>
        <time>2015-08-30T11:33:22Z</time>
      </trkpt>
      <trkpt lat="45.66414" lon="5.82243">
        <ele>1476.72</ele>
        <time>2015-08-30T11:33:41Z</time>
      </trkpt>
      <trkpt lat="45.66419" lon="5.82243">
        <ele>1476.72</ele>
        <time>2015-08-30T11:33:55Z</time>
      </trkpt>
      <trkpt lat="45.66427" lon="5.82246">
        <ele>1475.76</ele>
        <time>2015-08-30T11:34:13Z</time>
      </trkpt>
      <trkpt lat="45.66433" lon="5.82252">
        <ele>1475.28</ele>
        <time>2015-08-30T11:34:27Z</time>
      </trkpt>
      <trkpt lat="45.66437" lon="5.82258">
        <ele>1472.88</ele>
        <time>2015-08-30T11:34:45Z</time>
      </trkpt>
      <trkpt lat="45.66448" lon="5.82271">
        <ele>1472.4</ele>
        <time>2015-08-30T11:35:04Z</time>
      </trkpt>
      <trkpt lat="45.66454" lon="5.82277">
        <ele>1471.92</ele>
        <time>2015-08-30T11:35:24Z</time>
      </trkpt>
      <trkpt lat="45.66461" lon="5.82294">
        <ele>1470.95</ele>
        <time>2015-08-30T11:35:43Z</time>
      </trkpt>
      <trkpt lat="45.66478" lon="5.82311">
        <ele>1470.47</ele>
        <time>2015-08-30T11:36:00Z</time>
      </trkpt>
      <trkpt lat="45.66484" lon="5.82314">
        <ele>1469.99</ele>
        <time>2015-08-30T11:36:23Z</time>
      </trkpt>
      <trkpt lat="45.66484" lon="5.82319">
        <ele>1470.47</ele>
        <time>2015-08-30T11:36:47Z</time>
      </trkpt>
      <trkpt lat="45.66482" lon="5.82317">
        <ele>1470.47</ele>
        <time>2015-08-30T11:37:09Z</time>
      </trkpt>
      <trkpt lat="45.66474" lon="5.82317">
        <ele>1469.99</ele>
        <time>2015-08-30T11:37:37Z</time>
      </trkpt>
      <trkpt lat="45.66481" lon="5.82339">
        <ele>1468.55</ele>
        <time>2015-08-30T11:38:00Z</time>
      </trkpt>
      <trkpt lat="45.6649" lon="5.8235">
        <ele>1468.07</ele>
        <time>2015-08-30T11:38:13Z</time>
      </trkpt>
      <trkpt lat="45.66503" lon="5.82355">
        <ele>1468.07</ele>
        <time>2015-08-30T11:38:36Z</time>
      </trkpt>
      <trkpt lat="45.66513" lon="5.8236">
        <ele>1467.59</ele>
        <time>2015-08-30T11:38:59Z</time>
      </trkpt>
      <trkpt lat="45.66518" lon="5.82373">
        <ele>1467.59</ele>
        <time>2015-08-30T11:39:21Z</time>
      </trkpt>
      <trkpt lat="45.66541" lon="5.82402">
        <ele>1467.59</ele>
        <time>2015-08-30T11:39:46Z</time>
      </trkpt>
      <trkpt lat="45.66555" lon="5.82416">
        <ele>1468.07</ele>
        <time>2015-08-30T11:40:14Z</time>
      </trkpt>
      <trkpt lat="45.66562" lon="5.82439">
        <ele>1467.59</ele>
        <time>2015-08-30T11:40:36Z</time>
      </trkpt>
      <trkpt lat="45.66569" lon="5.82443">
        <ele>1467.11</ele>
        <time>2015-08-30T11:40:59Z</time>
      </trkpt>
      <trkpt lat="45.6659" lon="5.82455">
        <ele>1467.11</ele>
        <time>2015-08-30T11:41:20Z</time>
      </trkpt>
      <trkpt lat="45.66606" lon="5.82468">
        <ele>1466.63</ele>
        <time>2015-08-30T11:41:43Z</time>
      </trkpt>
      <trkpt lat="45.66615" lon="5.8247">
        <ele>1465.67</ele>
        <time>2015-08-30T11:42:08Z</time>
      </trkpt>
      <trkpt lat="45.6663" lon="5.82491">
        <ele>1465.19</ele>
        <time>2015-08-30T11:42:29Z</time>
      </trkpt>
      <trkpt lat="45.66645" lon="5.82513">
        <ele>1464.71</ele>
        <time>2015-08-30T11:42:52Z</time>
      </trkpt>
      <trkpt lat="45.66648" lon="5.82515">
        <ele>1464.23</ele>
        <time>2015-08-30T11:43:18Z</time>
      </trkpt>
      <trkpt lat="45.66666" lon="5.82526">
        <ele>1463.74</ele>
        <time>2015-08-30T11:43:40Z</time>
      </trkpt>
      <trkpt lat="45.6668" lon="5.82555">
        <ele>1463.74</ele>
        <time>2015-08-30T11:43:58Z</time>
      </trkpt>
      <trkpt lat="45.66686" lon="5.82561">
        <ele>1463.26</ele>
        <time>2015-08-30T11:44:15Z</time>
      </trkpt>
      <trkpt lat="45.66699" lon="5.82563">
        <ele>1462.78</ele>
        <time>2015-08-30T11:44:32Z</time>
      </trkpt>
      <trkpt lat="45.66709" lon="5.8257">
        <ele>1461.82</ele>
        <time>2015-08-30T11:44:50Z</time>
      </trkpt>
      <trkpt lat="45.66719" lon="5.82572">
        <ele>1461.82</ele>
        <time>2015-08-30T11:45:08Z</time>
      </trkpt>
      <trkpt lat="45.66721" lon="5.82573">
        <ele>1462.3</ele>
        <time>2015-08-30T11:45:26Z</time>
      </trkpt>
      <trkpt lat="45.66722" lon="5.82569">
        <ele>1461.82</ele>
        <time>2015-08-30T11:45:51Z</time>
      </trkpt>
      <trkpt lat="45.66724" lon="5.82565">
        <ele>1461.34</ele>
        <time>2015-08-30T11:46:14Z</time>
      </trkpt>
      <trkpt lat="45.66728" lon="5.82568">
        <ele>1461.34</ele>
        <time>2015-08-30T11:46:39Z</time>
      </trkpt>
      <trkpt lat="45.66736" lon="5.82578">
        <ele>1460.38</ele>
        <time>2015-08-30T11:47:04Z</time>
      </trkpt>
      <trkpt lat="45.66742" lon="5.82591">
        <ele>1459.9</ele>
        <time>2015-08-30T11:47:25Z</time>
      </trkpt>
      <trkpt lat="45.66749" lon="5.82602">
        <ele>1459.9</ele>
        <time>2015-08-30T11:47:44Z</time>
      </trkpt>
      <trkpt lat="45.66753" lon="5.82603">
        <ele>1459.9</ele>
        <time>2015-08-30T11:48:12Z</time>
      </trkpt>
      <trkpt lat="45.66756" lon="5.82615">
        <ele>1457.98</ele>
        <time>2015-08-30T11:48:37Z</time>
      </trkpt>
      <trkpt lat="45.66772" lon="5.82634">
        <ele>1458.46</ele>
        <time>2015-08-30T11:49:00Z</time>
      </trkpt>
      <trkpt lat="45.66785" lon="5.82653">
        <ele>1458.94</ele>
        <time>2015-08-30T11:49:22Z</time>
      </trkpt>
      <trkpt lat="45.668" lon="5.82658">
        <ele>1459.9</ele>
        <time>2015-08-30T11:49:43Z</time>
      </trkpt>
      <trkpt lat="45.6681" lon="5.82654">
        <ele>1463.26</ele>
        <time>2015-08-30T11:50:00Z</time>
      </trkpt>
      <trkpt lat="45.66822" lon="5.82653">
        <ele>1464.71</ele>
        <time>2015-08-30T11:50:21Z</time>
      </trkpt>
      <trkpt lat="45.66823" lon="5.82653">
        <ele>1464.23</ele>
        <time>2015-08-30T11:50:48Z</time>
      </trkpt>
      <trkpt lat="45.66821" lon="5.82673">
        <ele>1464.71</ele>
        <time>2015-08-30T11:51:10Z</time>
      </trkpt>
      <trkpt lat="45.66822" lon="5.82659">
        <ele>1464.71</ele>
        <time>2015-08-30T11:51:29Z</time>
      </trkpt>
      <trkpt lat="45.66823" lon="5.82664">
        <ele>1463.26</ele>
        <time>2015-08-30T11:51:49Z</time>
      </trkpt>
      <trkpt lat="45.66821" lon="5.82665">
        <ele>1464.71</ele>
        <time>2015-08-30T11:52:18Z</time>
      </trkpt>
      <trkpt lat="45.66827" lon="5.82664">
        <ele>1465.19</ele>
        <time>2015-08-30T11:52:41Z</time>
      </trkpt>
      <trkpt lat="45.66834" lon="5.82666">
        <ele>1466.63</ele>
        <time>2015-08-30T11:52:56Z</time>
      </trkpt>
      <trkpt lat="45.66843" lon="5.8267">
        <ele>1468.07</ele>
        <time>2015-08-30T11:53:15Z</time>
      </trkpt>
      <trkpt lat="45.66855" lon="5.82675">
        <ele>1469.03</ele>
        <time>2015-08-30T11:53:32Z</time>
      </trkpt>
      <trkpt lat="45.66863" lon="5.82691">
        <ele>1467.59</ele>
        <time>2015-08-30T11:53:49Z</time>
      </trkpt>
      <trkpt lat="45.66872" lon="5.82698">
        <ele>1467.59</ele>
        <time>2015-08-30T11:54:05Z</time>
      </trkpt>
      <trkpt lat="45.66883" lon="5.82703">
        <ele>1467.59</ele>
        <time>2015-08-30T11:54:24Z</time>
      </trkpt>
      <trkpt lat="45.66892" lon="5.82705">
        <ele>1467.59</ele>
        <time>2015-08-30T11:54:40Z</time>
      </trkpt>
      <trkpt lat="45.66904" lon="5.82717">
        <ele>1465.67</ele>
        <time>2015-08-30T11:54:56Z</time>
      </trkpt>
      <trkpt lat="45.66908" lon="5.82727">
        <ele>1463.26</ele>
        <time>2015-08-30T11:55:09Z</time>
      </trkpt>
      <trkpt lat="45.66913" lon="5.82726">
        <ele>1463.74</ele>
        <time>2015-08-30T11:55:21Z</time>
      </trkpt>
      <trkpt lat="45.66913" lon="5.82724">
        <ele>1463.74</ele>
        <time>2015-08-30T11:55:39Z</time>
      </trkpt>
      <trkpt lat="45.66913" lon="5.82727">
        <ele>1462.78</ele>
        <time>2015-08-30T11:56:07Z</time>
      </trkpt>
      <trkpt lat="45.66918" lon="5.82731">
        <ele>1461.82</ele>
        <time>2015-08-30T11:56:26Z</time>
      </trkpt>
      <trkpt lat="45.66926" lon="5.82738">
        <ele>1460.38</ele>
        <time>2015-08-30T11:56:42Z</time>
      </trkpt>
      <trkpt lat="45.66927" lon="5.82733">
        <ele>1460.38</ele>
        <time>2015-08-30T11:57:04Z</time>
      </trkpt>
      <trkpt lat="45.66927" lon="5.82745">
        <ele>1457.98</ele>
        <time>2015-08-30T11:57:22Z</time>
      </trkpt>
      <trkpt lat="45.66939" lon="5.82761">
        <ele>1456.53</ele>
        <time>2015-08-30T11:57:45Z</time>
      </trkpt>
      <trkpt lat="45.66957" lon="5.82773">
        <ele>1456.53</ele>
        <time>2015-08-30T11:58:03Z</time>
      </trkpt>
      <trkpt lat="45.66962" lon="5.82773">
        <ele>1457.02</ele>
        <time>2015-08-30T11:58:18Z</time>
      </trkpt>
      <trkpt lat="45.66966" lon="5.82773">
        <ele>1457.02</ele>
        <time>2015-08-30T11:58:43Z</time>
      </trkpt>
      <trkpt lat="45.66973" lon="5.82776">
        <ele>1456.53</ele>
        <time>2015-08-30T11:59:06Z</time>
      </trkpt>
      <trkpt lat="45.66978" lon="5.82785">
        <ele>1455.09</ele>
        <time>2015-08-30T11:59:20Z</time>
      </trkpt>
      <trkpt lat="45.6699" lon="5.82795">
        <ele>1453.17</ele>
        <time>2015-08-30T11:59:36Z</time>
      </trkpt>
      <trkpt lat="45.67001" lon="5.82802">
        <ele>1451.73</ele>
        <time>2015-08-30T11:59:56Z</time>
      </trkpt>
      <trkpt lat="45.67002" lon="5.82802">
        <ele>1451.73</ele>
        <time>2015-08-30T12:00:22Z</time>
      </trkpt>
      <trkpt lat="45.67002" lon="5.82804">
        <ele>1452.21</ele>
        <time>2015-08-30T12:00:45Z</time>
      </trkpt>
      <trkpt lat="45.66998" lon="5.82804">
        <ele>1451.25</ele>
        <time>2015-08-30T12:01:07Z</time>
      </trkpt>
      <trkpt lat="45.67003" lon="5.82812">
        <ele>1447.88</ele>
        <time>2015-08-30T12:01:19Z</time>
      </trkpt>
      <trkpt lat="45.67008" lon="5.82815">
        <ele>1447.88</ele>
        <time>2015-08-30T12:01:40Z</time>
      </trkpt>
      <trkpt lat="45.67006" lon="5.82817">
        <ele>1446.44</ele>
        <time>2015-08-30T12:02:06Z</time>
      </trkpt>
      <trkpt lat="45.67016" lon="5.82829">
        <ele>1444.04</ele>
        <time>2015-08-30T12:02:34Z</time>
      </trkpt>
      <trkpt lat="45.6702" lon="5.82836">
        <ele>1441.15</ele>
        <time>2015-08-30T12:02:52Z</time>
      </trkpt>
      <trkpt lat="45.67038" lon="5.82848">
        <ele>1438.75</ele>
        <time>2015-08-30T12:03:16Z</time>
      </trkpt>
      <trkpt lat="45.67047" lon="5.82856">
        <ele>1437.79</ele>
        <time>2015-08-30T12:03:31Z</time>
      </trkpt>
      <trkpt lat="45.67056" lon="5.82858">
        <ele>1436.35</ele>
        <time>2015-08-30T12:03:47Z</time>
      </trkpt>
      <trkpt lat="45.67058" lon="5.8286">
        <ele>1436.35</ele>
        <time>2015-08-30T12:04:07Z</time>
      </trkpt>
      <trkpt lat="45.6706" lon="5.82859">
        <ele>1437.79</ele>
        <time>2015-08-30T12:04:12Z</time>
      </trkpt>
      <trkpt lat="45.67069" lon="5.82853">
        <ele>1438.75</ele>
        <time>2015-08-30T12:04:33Z</time>
      </trkpt>
      <trkpt lat="45.67069" lon="5.82857">
        <ele>1439.23</ele>
        <time>2015-08-30T12:04:55Z</time>
      </trkpt>
      <trkpt lat="45.67067" lon="5.82852">
        <ele>1439.23</ele>
        <time>2015-08-30T12:05:07Z</time>
      </trkpt>
      <trkpt lat="45.67068" lon="5.82859">
        <ele>1438.75</ele>
        <time>2015-08-30T12:05:28Z</time>
      </trkpt>
      <trkpt lat="45.67068" lon="5.82861">
        <ele>1438.27</ele>
        <time>2015-08-30T12:05:51Z</time>
      </trkpt>
      <trkpt lat="45.67073" lon="5.8287">
        <ele>1439.23</ele>
        <time>2015-08-30T12:06:11Z</time>
      </trkpt>
      <trkpt lat="45.67083" lon="5.82871">
        <ele>1439.23</ele>
        <time>2015-08-30T12:06:29Z</time>
      </trkpt>
      <trkpt lat="45.67087" lon="5.82873">
        <ele>1440.19</ele>
        <time>2015-08-30T12:06:53Z</time>
      </trkpt>
      <trkpt lat="45.67087" lon="5.82874">
        <ele>1439.71</ele>
        <time>2015-08-30T12:07:16Z</time>
      </trkpt>
      <trkpt lat="45.67095" lon="5.8289">
        <ele>1437.31</ele>
        <time>2015-08-30T12:07:37Z</time>
      </trkpt>
      <trkpt lat="45.67097" lon="5.82892">
        <ele>1436.83</ele>
        <time>2015-08-30T12:07:40Z</time>
      </trkpt>
      <trkpt lat="45.67101" lon="5.82897">
        <ele>1436.35</ele>
        <time>2015-08-30T12:07:46Z</time>
      </trkpt>
      <trkpt lat="45.67115" lon="5.82908">
        <ele>1437.31</ele>
        <time>2015-08-30T12:08:03Z</time>
      </trkpt>
      <trkpt lat="45.6712" lon="5.82915">
        <ele>1436.35</ele>
        <time>2015-08-30T12:08:10Z</time>
      </trkpt>
      <trkpt lat="45.6713" lon="5.82928">
        <ele>1437.31</ele>
        <time>2015-08-30T12:08:26Z</time>
      </trkpt>
      <trkpt lat="45.67137" lon="5.82937">
        <ele>1439.23</ele>
        <time>2015-08-30T12:08:41Z</time>
      </trkpt>
      <trkpt lat="45.6714" lon="5.82945">
        <ele>1439.23</ele>
        <time>2015-08-30T12:08:56Z</time>
      </trkpt>
      <trkpt lat="45.67149" lon="5.8295">
        <ele>1441.63</ele>
        <time>2015-08-30T12:09:12Z</time>
      </trkpt>
      <trkpt lat="45.67153" lon="5.82944">
        <ele>1442.11</ele>
        <time>2015-08-30T12:09:30Z</time>
      </trkpt>
      <trkpt lat="45.67154" lon="5.82933">
        <ele>1444.04</ele>
        <time>2015-08-30T12:09:42Z</time>
      </trkpt>
      <trkpt lat="45.67159" lon="5.82934">
        <ele>1445</ele>
        <time>2015-08-30T12:09:57Z</time>
      </trkpt>
      <trkpt lat="45.67157" lon="5.82933">
        <ele>1445.48</ele>
        <time>2015-08-30T12:10:19Z</time>
      </trkpt>
      <trkpt lat="45.67161" lon="5.82932">
        <ele>1445.48</ele>
        <time>2015-08-30T12:10:41Z</time>
      </trkpt>
      <trkpt lat="45.6716" lon="5.82931">
        <ele>1446.44</ele>
        <time>2015-08-30T12:11:12Z</time>
      </trkpt>
      <trkpt lat="45.6716" lon="5.82932">
        <ele>1445.48</ele>
        <time>2015-08-30T12:11:28Z</time>
      </trkpt>
      <trkpt lat="45.67159" lon="5.82932">
        <ele>1445</ele>
        <time>2015-08-30T12:11:47Z</time>
      </trkpt>
      <trkpt lat="45.67161" lon="5.82934">
        <ele>1445</ele>
        <time>2015-08-30T12:12:11Z</time>
      </trkpt>
      <trkpt lat="45.6716" lon="5.82934">
        <ele>1445.48</ele>
        <time>2015-08-30T12:12:38Z</time>
      </trkpt>
      <trkpt lat="45.6716" lon="5.82934">
        <ele>1445.96</ele>
        <time>2015-08-30T12:12:58Z</time>
      </trkpt>
      <trkpt lat="45.67162" lon="5.82938">
        <ele>1444.52</ele>
        <time>2015-08-30T12:13:08Z</time>
      </trkpt>
      <trkpt lat="45.67168" lon="5.82939">
        <ele>1445</ele>
        <time>2015-08-30T12:13:17Z</time>
      </trkpt>
      <trkpt lat="45.67169" lon="5.82939">
        <ele>1444.52</ele>
        <time>2015-08-30T12:13:35Z</time>
      </trkpt>
      <trkpt lat="45.6717" lon="5.82941">
        <ele>1444.04</ele>
        <time>2015-08-30T12:13:47Z</time>
      </trkpt>
      <trkpt lat="45.67171" lon="5.8294">
        <ele>1444.52</ele>
        <time>2015-08-30T12:14:20Z</time>
      </trkpt>
      <trkpt lat="45.6717" lon="5.82941">
        <ele>1443.56</ele>
        <time>2015-08-30T12:14:46Z</time>
      </trkpt>
      <trkpt lat="45.6717" lon="5.82942">
        <ele>1444.52</ele>
        <time>2015-08-30T12:15:06Z</time>
      </trkpt>
      <trkpt lat="45.67172" lon="5.82945">
        <ele>1443.56</ele>
        <time>2015-08-30T12:15:42Z</time>
      </trkpt>
      <trkpt lat="45.6717" lon="5.82944">
        <ele>1443.56</ele>
        <time>2015-08-30T12:16:17Z</time>
      </trkpt>
      <trkpt lat="45.6717" lon="5.82944">
        <ele>1440.19</ele>
        <time>2015-08-30T12:16:37Z</time>
      </trkpt>
      <trkpt lat="45.6717" lon="5.82944">
        <ele>1444.04</ele>
        <time>2015-08-30T12:16:38Z</time>
      </trkpt>
      <trkpt lat="45.67171" lon="5.82943">
        <ele>1444.04</ele>
        <time>2015-08-30T12:17:13Z</time>
      </trkpt>
      <trkpt lat="45.6717" lon="5.82942">
        <ele>1443.56</ele>
        <time>2015-08-30T12:17:44Z</time>
      </trkpt>
      <trkpt lat="45.6717" lon="5.82941">
        <ele>1443.56</ele>
        <time>2015-08-30T12:18:21Z</time>
      </trkpt>
      <trkpt lat="45.67169" lon="5.82941">
        <ele>1443.56</ele>
        <time>2015-08-30T12:18:40Z</time>
      </trkpt>
      <trkpt lat="45.6717" lon="5.82943">
        <ele>1443.56</ele>
        <time>2015-08-30T12:19:00Z</time>
      </trkpt>
      <trkpt lat="45.6717" lon="5.82943">
        <ele>1439.23</ele>
        <time>2015-08-30T12:19:05Z</time>
      </trkpt>
      <trkpt lat="45.6717" lon="5.82943">
        <ele>1446.92</ele>
        <time>2015-08-30T12:19:06Z</time>
      </trkpt>
      <trkpt lat="45.6717" lon="5.82943">
        <ele>1444.04</ele>
        <time>2015-08-30T12:19:07Z</time>
      </trkpt>
      <trkpt lat="45.6717" lon="5.82943">
        <ele>1442.11</ele>
        <time>2015-08-30T12:19:09Z</time>
      </trkpt>
      <trkpt lat="45.6717" lon="5.82943">
        <ele>1445.48</ele>
        <time>2015-08-30T12:19:10Z</time>
      </trkpt>
      <trkpt lat="45.6717" lon="5.82943">
        <ele>1444.04</ele>
        <time>2015-08-30T12:19:11Z</time>
      </trkpt>
      <trkpt lat="45.6717" lon="5.8294">
        <ele>1443.56</ele>
        <time>2015-08-30T12:19:37Z</time>
      </trkpt>
      <trkpt lat="45.6717" lon="5.82939">
        <ele>1443.08</ele>
        <time>2015-08-30T12:20:06Z</time>
      </trkpt>
      <trkpt lat="45.6717" lon="5.82944">
        <ele>1443.08</ele>
        <time>2015-08-30T12:20:32Z</time>
      </trkpt>
      <trkpt lat="45.67169" lon="5.82944">
        <ele>1443.08</ele>
        <time>2015-08-30T12:21:03Z</time>
      </trkpt>
      <trkpt lat="45.6717" lon="5.82944">
        <ele>1443.56</ele>
        <time>2015-08-30T12:21:30Z</time>
      </trkpt>
      <trkpt lat="45.67169" lon="5.82942">
        <ele>1443.56</ele>
        <time>2015-08-30T12:21:57Z</time>
      </trkpt>
      <trkpt lat="45.67166" lon="5.8294">
        <ele>1442.6</ele>
        <time>2015-08-30T12:22:13Z</time>
      </trkpt>
      <trkpt lat="45.67165" lon="5.82944">
        <ele>1442.6</ele>
        <time>2015-08-30T12:22:25Z</time>
      </trkpt>
      <trkpt lat="45.67162" lon="5.82948">
        <ele>1441.63</ele>
        <time>2015-08-30T12:22:40Z</time>
      </trkpt>
      <trkpt lat="45.6716" lon="5.82945">
        <ele>1442.11</ele>
        <time>2015-08-30T12:22:59Z</time>
      </trkpt>
      <trkpt lat="45.67159" lon="5.82945">
        <ele>1440.67</ele>
        <time>2015-08-30T12:23:11Z</time>
      </trkpt>
      <trkpt lat="45.67153" lon="5.82947">
        <ele>1439.71</ele>
        <time>2015-08-30T12:23:24Z</time>
      </trkpt>
      <trkpt lat="45.67152" lon="5.82947">
        <ele>1439.23</ele>
        <time>2015-08-30T12:23:42Z</time>
      </trkpt>
      <trkpt lat="45.67146" lon="5.82948">
        <ele>1437.79</ele>
        <time>2015-08-30T12:23:52Z</time>
      </trkpt>
      <trkpt lat="45.67142" lon="5.82947">
        <ele>1437.31</ele>
        <time>2015-08-30T12:23:56Z</time>
      </trkpt>
      <trkpt lat="45.67138" lon="5.82939">
        <ele>1436.83</ele>
        <time>2015-08-30T12:24:16Z</time>
      </trkpt>
      <trkpt lat="45.67131" lon="5.82932">
        <ele>1435.39</ele>
        <time>2015-08-30T12:24:44Z</time>
      </trkpt>
      <trkpt lat="45.67125" lon="5.82922">
        <ele>1433.94</ele>
        <time>2015-08-30T12:25:03Z</time>
      </trkpt>
      <trkpt lat="45.67119" lon="5.82916">
        <ele>1433.94</ele>
        <time>2015-08-30T12:25:21Z</time>
      </trkpt>
      <trkpt lat="45.67118" lon="5.82914">
        <ele>1437.31</ele>
        <time>2015-08-30T12:25:24Z</time>
      </trkpt>
      <trkpt lat="45.67113" lon="5.8291">
        <ele>1433.94</ele>
        <time>2015-08-30T12:25:36Z</time>
      </trkpt>
      <trkpt lat="45.67112" lon="5.8291">
        <ele>1436.35</ele>
        <time>2015-08-30T12:25:38Z</time>
      </trkpt>
      <trkpt lat="45.6711" lon="5.8291">
        <ele>1434.91</ele>
        <time>2015-08-30T12:25:40Z</time>
      </trkpt>
      <trkpt lat="45.67098" lon="5.82897">
        <ele>1434.42</ele>
        <time>2015-08-30T12:25:59Z</time>
      </trkpt>
      <trkpt lat="45.67087" lon="5.82885">
        <ele>1434.91</ele>
        <time>2015-08-30T12:26:16Z</time>
      </trkpt>
      <trkpt lat="45.67087" lon="5.8288">
        <ele>1435.87</ele>
        <time>2015-08-30T12:26:20Z</time>
      </trkpt>
      <trkpt lat="45.67077" lon="5.82872">
        <ele>1435.87</ele>
        <time>2015-08-30T12:26:38Z</time>
      </trkpt>
      <trkpt lat="45.67069" lon="5.82868">
        <ele>1434.91</ele>
        <time>2015-08-30T12:26:52Z</time>
      </trkpt>
      <trkpt lat="45.67059" lon="5.8286">
        <ele>1432.98</ele>
        <time>2015-08-30T12:27:10Z</time>
      </trkpt>
      <trkpt lat="45.67046" lon="5.82857">
        <ele>1434.42</ele>
        <time>2015-08-30T12:27:26Z</time>
      </trkpt>
      <trkpt lat="45.67035" lon="5.82848">
        <ele>1435.39</ele>
        <time>2015-08-30T12:27:45Z</time>
      </trkpt>
      <trkpt lat="45.67022" lon="5.82841">
        <ele>1437.31</ele>
        <time>2015-08-30T12:28:02Z</time>
      </trkpt>
      <trkpt lat="45.67014" lon="5.82832">
        <ele>1438.27</ele>
        <time>2015-08-30T12:28:20Z</time>
      </trkpt>
      <trkpt lat="45.67009" lon="5.82825">
        <ele>1439.71</ele>
        <time>2015-08-30T12:28:39Z</time>
      </trkpt>
      <trkpt lat="45.67009" lon="5.82821">
        <ele>1441.15</ele>
        <time>2015-08-30T12:28:58Z</time>
      </trkpt>
      <trkpt lat="45.67002" lon="5.82821">
        <ele>1442.11</ele>
        <time>2015-08-30T12:29:15Z</time>
      </trkpt>
      <trkpt lat="45.67001" lon="5.82806">
        <ele>1445.48</ele>
        <time>2015-08-30T12:29:32Z</time>
      </trkpt>
      <trkpt lat="45.66994" lon="5.82799">
        <ele>1448.36</ele>
        <time>2015-08-30T12:29:52Z</time>
      </trkpt>
      <trkpt lat="45.66986" lon="5.82793">
        <ele>1450.29</ele>
        <time>2015-08-30T12:30:12Z</time>
      </trkpt>
      <trkpt lat="45.66978" lon="5.82784">
        <ele>1451.25</ele>
        <time>2015-08-30T12:30:28Z</time>
      </trkpt>
      <trkpt lat="45.66969" lon="5.82778">
        <ele>1451.73</ele>
        <time>2015-08-30T12:30:41Z</time>
      </trkpt>
      <trkpt lat="45.66965" lon="5.82774">
        <ele>1452.21</ele>
        <time>2015-08-30T12:31:02Z</time>
      </trkpt>
      <trkpt lat="45.66956" lon="5.82773">
        <ele>1452.69</ele>
        <time>2015-08-30T12:31:21Z</time>
      </trkpt>
      <trkpt lat="45.66949" lon="5.82769">
        <ele>1452.21</ele>
        <time>2015-08-30T12:31:40Z</time>
      </trkpt>
      <trkpt lat="45.66939" lon="5.82762">
        <ele>1453.17</ele>
        <time>2015-08-30T12:31:56Z</time>
      </trkpt>
      <trkpt lat="45.66932" lon="5.82755">
        <ele>1454.13</ele>
        <time>2015-08-30T12:32:12Z</time>
      </trkpt>
      <trkpt lat="45.66926" lon="5.82744">
        <ele>1456.05</ele>
        <time>2015-08-30T12:32:27Z</time>
      </trkpt>
      <trkpt lat="45.66921" lon="5.82732">
        <ele>1457.02</ele>
        <time>2015-08-30T12:32:43Z</time>
      </trkpt>
      <trkpt lat="45.66915" lon="5.82726">
        <ele>1458.94</ele>
        <time>2015-08-30T12:32:58Z</time>
      </trkpt>
      <trkpt lat="45.66906" lon="5.82721">
        <ele>1460.38</ele>
        <time>2015-08-30T12:33:14Z</time>
      </trkpt>
      <trkpt lat="45.66902" lon="5.82715">
        <ele>1461.82</ele>
        <time>2015-08-30T12:33:29Z</time>
      </trkpt>
      <trkpt lat="45.66894" lon="5.8271">
        <ele>1463.74</ele>
        <time>2015-08-30T12:33:47Z</time>
      </trkpt>
      <trkpt lat="45.66884" lon="5.82704">
        <ele>1463.74</ele>
        <time>2015-08-30T12:34:05Z</time>
      </trkpt>
      <trkpt lat="45.66875" lon="5.82696">
        <ele>1464.23</ele>
        <time>2015-08-30T12:34:22Z</time>
      </trkpt>
      <trkpt lat="45.66872" lon="5.82693">
        <ele>1464.71</ele>
        <time>2015-08-30T12:34:53Z</time>
      </trkpt>
      <trkpt lat="45.66873" lon="5.8269">
        <ele>1464.23</ele>
        <time>2015-08-30T12:35:11Z</time>
      </trkpt>
      <trkpt lat="45.66872" lon="5.82689">
        <ele>1461.34</ele>
        <time>2015-08-30T12:35:20Z</time>
      </trkpt>
      <trkpt lat="45.66872" lon="5.82688">
        <ele>1465.67</ele>
        <time>2015-08-30T12:35:21Z</time>
      </trkpt>
      <trkpt lat="45.66876" lon="5.8269">
        <ele>1464.23</ele>
        <time>2015-08-30T12:35:49Z</time>
      </trkpt>
      <trkpt lat="45.66865" lon="5.8269">
        <ele>1464.23</ele>
        <time>2015-08-30T12:36:21Z</time>
      </trkpt>
      <trkpt lat="45.66866" lon="5.82689">
        <ele>1464.71</ele>
        <time>2015-08-30T12:36:50Z</time>
      </trkpt>
      <trkpt lat="45.66879" lon="5.82686">
        <ele>1464.71</ele>
        <time>2015-08-30T12:37:14Z</time>
      </trkpt>
      <trkpt lat="45.66873" lon="5.82679">
        <ele>1465.19</ele>
        <time>2015-08-30T12:37:36Z</time>
      </trkpt>
      <trkpt lat="45.66872" lon="5.82679">
        <ele>1464.71</ele>
        <time>2015-08-30T12:37:37Z</time>
      </trkpt>
      <trkpt lat="45.66871" lon="5.82685">
        <ele>1464.23</ele>
        <time>2015-08-30T12:38:03Z</time>
      </trkpt>
      <trkpt lat="45.66865" lon="5.82687">
        <ele>1465.19</ele>
        <time>2015-08-30T12:38:32Z</time>
      </trkpt>
      <trkpt lat="45.66862" lon="5.8269">
        <ele>1464.71</ele>
        <time>2015-08-30T12:38:54Z</time>
      </trkpt>
      <trkpt lat="45.66863" lon="5.82689">
        <ele>1465.19</ele>
        <time>2015-08-30T12:39:20Z</time>
      </trkpt>
      <trkpt lat="45.66857" lon="5.8268">
        <ele>1465.19</ele>
        <time>2015-08-30T12:39:34Z</time>
      </trkpt>
      <trkpt lat="45.66848" lon="5.82672">
        <ele>1465.19</ele>
        <time>2015-08-30T12:39:50Z</time>
      </trkpt>
      <trkpt lat="45.66834" lon="5.82664">
        <ele>1463.26</ele>
        <time>2015-08-30T12:40:07Z</time>
      </trkpt>
      <trkpt lat="45.66825" lon="5.8266">
        <ele>1461.82</ele>
        <time>2015-08-30T12:40:23Z</time>
      </trkpt>
      <trkpt lat="45.66816" lon="5.82654">
        <ele>1460.86</ele>
        <time>2015-08-30T12:40:44Z</time>
      </trkpt>
      <trkpt lat="45.66821" lon="5.82661">
        <ele>1461.82</ele>
        <time>2015-08-30T12:41:04Z</time>
      </trkpt>
      <trkpt lat="45.66822" lon="5.82664">
        <ele>1460.86</ele>
        <time>2015-08-30T12:41:28Z</time>
      </trkpt>
      <trkpt lat="45.66816" lon="5.82658">
        <ele>1460.38</ele>
        <time>2015-08-30T12:41:50Z</time>
      </trkpt>
      <trkpt lat="45.66816" lon="5.82655">
        <ele>1460.86</ele>
        <time>2015-08-30T12:42:09Z</time>
      </trkpt>
      <trkpt lat="45.66814" lon="5.82655">
        <ele>1460.38</ele>
        <time>2015-08-30T12:42:19Z</time>
      </trkpt>
      <trkpt lat="45.66808" lon="5.82658">
        <ele>1457.5</ele>
        <time>2015-08-30T12:42:34Z</time>
      </trkpt>
      <trkpt lat="45.66797" lon="5.82653">
        <ele>1456.53</ele>
        <time>2015-08-30T12:42:52Z</time>
      </trkpt>
      <trkpt lat="45.66786" lon="5.82648">
        <ele>1455.09</ele>
        <time>2015-08-30T12:43:07Z</time>
      </trkpt>
      <trkpt lat="45.66775" lon="5.82639">
        <ele>1456.05</ele>
        <time>2015-08-30T12:43:24Z</time>
      </trkpt>
      <trkpt lat="45.66765" lon="5.82623">
        <ele>1456.53</ele>
        <time>2015-08-30T12:43:44Z</time>
      </trkpt>
      <trkpt lat="45.66753" lon="5.8261">
        <ele>1455.57</ele>
        <time>2015-08-30T12:44:01Z</time>
      </trkpt>
      <trkpt lat="45.66744" lon="5.82595">
        <ele>1457.5</ele>
        <time>2015-08-30T12:44:20Z</time>
      </trkpt>
      <trkpt lat="45.66732" lon="5.82576">
        <ele>1457.98</ele>
        <time>2015-08-30T12:44:39Z</time>
      </trkpt>
      <trkpt lat="45.66723" lon="5.82573">
        <ele>1457.5</ele>
        <time>2015-08-30T12:44:58Z</time>
      </trkpt>
      <trkpt lat="45.66707" lon="5.82571">
        <ele>1457.98</ele>
        <time>2015-08-30T12:45:16Z</time>
      </trkpt>
      <trkpt lat="45.66699" lon="5.82563">
        <ele>1458.46</ele>
        <time>2015-08-30T12:45:33Z</time>
      </trkpt>
      <trkpt lat="45.66686" lon="5.82556">
        <ele>1458.94</ele>
        <time>2015-08-30T12:45:50Z</time>
      </trkpt>
      <trkpt lat="45.66676" lon="5.8255">
        <ele>1458.46</ele>
        <time>2015-08-30T12:46:07Z</time>
      </trkpt>
      <trkpt lat="45.66672" lon="5.82538">
        <ele>1460.38</ele>
        <time>2015-08-30T12:46:23Z</time>
      </trkpt>
      <trkpt lat="45.66666" lon="5.82527">
        <ele>1459.9</ele>
        <time>2015-08-30T12:46:43Z</time>
      </trkpt>
      <trkpt lat="45.66654" lon="5.82518">
        <ele>1459.9</ele>
        <time>2015-08-30T12:47:00Z</time>
      </trkpt>
      <trkpt lat="45.66643" lon="5.8251">
        <ele>1460.38</ele>
        <time>2015-08-30T12:47:19Z</time>
      </trkpt>
      <trkpt lat="45.66631" lon="5.82495">
        <ele>1461.34</ele>
        <time>2015-08-30T12:47:37Z</time>
      </trkpt>
      <trkpt lat="45.66614" lon="5.82478">
        <ele>1461.82</ele>
        <time>2015-08-30T12:47:59Z</time>
      </trkpt>
      <trkpt lat="45.66607" lon="5.82472">
        <ele>1462.78</ele>
        <time>2015-08-30T12:48:13Z</time>
      </trkpt>
      <trkpt lat="45.66594" lon="5.82465">
        <ele>1462.3</ele>
        <time>2015-08-30T12:48:32Z</time>
      </trkpt>
      <trkpt lat="45.66581" lon="5.82455">
        <ele>1462.78</ele>
        <time>2015-08-30T12:48:52Z</time>
      </trkpt>
      <trkpt lat="45.66568" lon="5.82442">
        <ele>1463.26</ele>
        <time>2015-08-30T12:49:10Z</time>
      </trkpt>
      <trkpt lat="45.66558" lon="5.82427">
        <ele>1463.74</ele>
        <time>2015-08-30T12:49:28Z</time>
      </trkpt>
      <trkpt lat="45.66549" lon="5.82415">
        <ele>1463.74</ele>
        <time>2015-08-30T12:49:44Z</time>
      </trkpt>
      <trkpt lat="45.66538" lon="5.824">
        <ele>1463.26</ele>
        <time>2015-08-30T12:50:03Z</time>
      </trkpt>
      <trkpt lat="45.66532" lon="5.82383">
        <ele>1463.74</ele>
        <time>2015-08-30T12:50:19Z</time>
      </trkpt>
      <trkpt lat="45.66518" lon="5.82369">
        <ele>1463.74</ele>
        <time>2015-08-30T12:50:37Z</time>
      </trkpt>
      <trkpt lat="45.66509" lon="5.82361">
        <ele>1463.74</ele>
        <time>2015-08-30T12:50:55Z</time>
      </trkpt>
      <trkpt lat="45.66495" lon="5.82359">
        <ele>1463.74</ele>
        <time>2015-08-30T12:51:10Z</time>
      </trkpt>
      <trkpt lat="45.66492" lon="5.82357">
        <ele>1465.19</ele>
        <time>2015-08-30T12:51:16Z</time>
      </trkpt>
      <trkpt lat="45.66484" lon="5.8234">
        <ele>1465.19</ele>
        <time>2015-08-30T12:51:34Z</time>
      </trkpt>
      <trkpt lat="45.6648" lon="5.8232">
        <ele>1465.67</ele>
        <time>2015-08-30T12:51:53Z</time>
      </trkpt>
      <trkpt lat="45.66481" lon="5.8232">
        <ele>1466.15</ele>
        <time>2015-08-30T12:51:57Z</time>
      </trkpt>
      <trkpt lat="45.66477" lon="5.82316">
        <ele>1465.67</ele>
        <time>2015-08-30T12:52:29Z</time>
      </trkpt>
      <trkpt lat="45.66478" lon="5.82316">
        <ele>1465.67</ele>
        <time>2015-08-30T12:53:00Z</time>
      </trkpt>
      <trkpt lat="45.66479" lon="5.82319">
        <ele>1465.67</ele>
        <time>2015-08-30T12:53:32Z</time>
      </trkpt>
      <trkpt lat="45.66481" lon="5.82322">
        <ele>1466.15</ele>
        <time>2015-08-30T12:53:50Z</time>
      </trkpt>
      <trkpt lat="45.66474" lon="5.82304">
        <ele>1466.15</ele>
        <time>2015-08-30T12:54:08Z</time>
      </trkpt>
      <trkpt lat="45.66471" lon="5.82291">
        <ele>1467.59</ele>
        <time>2015-08-30T12:54:25Z</time>
      </trkpt>
      <trkpt lat="45.66461" lon="5.82282">
        <ele>1467.59</ele>
        <time>2015-08-30T12:54:42Z</time>
      </trkpt>
      <trkpt lat="45.66452" lon="5.8227">
        <ele>1468.07</ele>
        <time>2015-08-30T12:54:59Z</time>
      </trkpt>
      <trkpt lat="45.66442" lon="5.8226">
        <ele>1469.99</ele>
        <time>2015-08-30T12:55:19Z</time>
      </trkpt>
      <trkpt lat="45.6643" lon="5.82246">
        <ele>1471.92</ele>
        <time>2015-08-30T12:55:39Z</time>
      </trkpt>
      <trkpt lat="45.66416" lon="5.82245">
        <ele>1472.88</ele>
        <time>2015-08-30T12:55:58Z</time>
      </trkpt>
      <trkpt lat="45.66403" lon="5.82245">
        <ele>1472.88</ele>
        <time>2015-08-30T12:56:14Z</time>
      </trkpt>
      <trkpt lat="45.66394" lon="5.82244">
        <ele>1475.28</ele>
        <time>2015-08-30T12:56:30Z</time>
      </trkpt>
      <trkpt lat="45.66381" lon="5.82238">
        <ele>1476.24</ele>
        <time>2015-08-30T12:56:50Z</time>
      </trkpt>
      <trkpt lat="45.66366" lon="5.8223">
        <ele>1477.68</ele>
        <time>2015-08-30T12:57:09Z</time>
      </trkpt>
      <trkpt lat="45.66352" lon="5.82226">
        <ele>1478.16</ele>
        <time>2015-08-30T12:57:27Z</time>
      </trkpt>
      <trkpt lat="45.66341" lon="5.82218">
        <ele>1479.61</ele>
        <time>2015-08-30T12:57:43Z</time>
      </trkpt>
      <trkpt lat="45.66332" lon="5.82211">
        <ele>1480.57</ele>
        <time>2015-08-30T12:57:58Z</time>
      </trkpt>
      <trkpt lat="45.66324" lon="5.82202">
        <ele>1482.49</ele>
        <time>2015-08-30T12:58:14Z</time>
      </trkpt>
      <trkpt lat="45.66313" lon="5.82201">
        <ele>1484.89</ele>
        <time>2015-08-30T12:58:28Z</time>
      </trkpt>
      <trkpt lat="45.66305" lon="5.82193">
        <ele>1487.3</ele>
        <time>2015-08-30T12:58:43Z</time>
      </trkpt>
      <trkpt lat="45.66294" lon="5.82183">
        <ele>1489.7</ele>
        <time>2015-08-30T12:59:04Z</time>
      </trkpt>
      <trkpt lat="45.66294" lon="5.82184">
        <ele>1489.22</ele>
        <time>2015-08-30T12:59:24Z</time>
      </trkpt>
      <trkpt lat="45.66294" lon="5.82186">
        <ele>1489.7</ele>
        <time>2015-08-30T12:59:59Z</time>
      </trkpt>
      <trkpt lat="45.66291" lon="5.82184">
        <ele>1490.18</ele>
        <time>2015-08-30T13:00:27Z</time>
      </trkpt>
      <trkpt lat="45.66275" lon="5.82174">
        <ele>1489.22</ele>
        <time>2015-08-30T13:00:44Z</time>
      </trkpt>
      <trkpt lat="45.66265" lon="5.82169">
        <ele>1489.22</ele>
        <time>2015-08-30T13:01:00Z</time>
      </trkpt>
      <trkpt lat="45.66256" lon="5.82166">
        <ele>1489.7</ele>
        <time>2015-08-30T13:01:14Z</time>
      </trkpt>
      <trkpt lat="45.66243" lon="5.82156">
        <ele>1490.66</ele>
        <time>2015-08-30T13:01:31Z</time>
      </trkpt>
      <trkpt lat="45.66225" lon="5.82154">
        <ele>1491.14</ele>
        <time>2015-08-30T13:01:49Z</time>
      </trkpt>
      <trkpt lat="45.66208" lon="5.82156">
        <ele>1490.66</ele>
        <time>2015-08-30T13:02:08Z</time>
      </trkpt>
      <trkpt lat="45.66197" lon="5.82151">
        <ele>1490.18</ele>
        <time>2015-08-30T13:02:29Z</time>
      </trkpt>
      <trkpt lat="45.66186" lon="5.82151">
        <ele>1489.7</ele>
        <time>2015-08-30T13:02:46Z</time>
      </trkpt>
      <trkpt lat="45.66172" lon="5.82149">
        <ele>1488.74</ele>
        <time>2015-08-30T13:03:04Z</time>
      </trkpt>
      <trkpt lat="45.66156" lon="5.82149">
        <ele>1486.82</ele>
        <time>2015-08-30T13:03:23Z</time>
      </trkpt>
      <trkpt lat="45.66147" lon="5.82158">
        <ele>1485.37</ele>
        <time>2015-08-30T13:03:36Z</time>
      </trkpt>
      <trkpt lat="45.66147" lon="5.82162">
        <ele>1486.34</ele>
        <time>2015-08-30T13:04:02Z</time>
      </trkpt>
      <trkpt lat="45.66153" lon="5.82154">
        <ele>1485.85</ele>
        <time>2015-08-30T13:04:40Z</time>
      </trkpt>
      <trkpt lat="45.66146" lon="5.82158">
        <ele>1485.85</ele>
        <time>2015-08-30T13:05:10Z</time>
      </trkpt>
      <trkpt lat="45.66148" lon="5.82158">
        <ele>1485.85</ele>
        <time>2015-08-30T13:05:36Z</time>
      </trkpt>
      <trkpt lat="45.66145" lon="5.82161">
        <ele>1486.34</ele>
        <time>2015-08-30T13:06:03Z</time>
      </trkpt>
      <trkpt lat="45.66144" lon="5.82161">
        <ele>1485.85</ele>
        <time>2015-08-30T13:06:28Z</time>
      </trkpt>
      <trkpt lat="45.66144" lon="5.82158">
        <ele>1485.85</ele>
        <time>2015-08-30T13:06:54Z</time>
      </trkpt>
      <trkpt lat="45.66136" lon="5.82154">
        <ele>1484.89</ele>
        <time>2015-08-30T13:07:13Z</time>
      </trkpt>
      <trkpt lat="45.66133" lon="5.82155">
        <ele>1484.89</ele>
        <time>2015-08-30T13:07:17Z</time>
      </trkpt>
      <trkpt lat="45.66121" lon="5.82158">
        <ele>1484.89</ele>
        <time>2015-08-30T13:07:33Z</time>
      </trkpt>
      <trkpt lat="45.66113" lon="5.82159">
        <ele>1484.89</ele>
        <time>2015-08-30T13:07:47Z</time>
      </trkpt>
      <trkpt lat="45.66104" lon="5.82163">
        <ele>1483.45</ele>
        <time>2015-08-30T13:07:58Z</time>
      </trkpt>
      <trkpt lat="45.66093" lon="5.82158">
        <ele>1483.45</ele>
        <time>2015-08-30T13:08:11Z</time>
      </trkpt>
      <trkpt lat="45.66084" lon="5.82154">
        <ele>1483.93</ele>
        <time>2015-08-30T13:08:23Z</time>
      </trkpt>
      <trkpt lat="45.66076" lon="5.82151">
        <ele>1482.97</ele>
        <time>2015-08-30T13:08:33Z</time>
      </trkpt>
      <trkpt lat="45.6607" lon="5.82146">
        <ele>1482.97</ele>
        <time>2015-08-30T13:08:41Z</time>
      </trkpt>
      <trkpt lat="45.66064" lon="5.82135">
        <ele>1482.01</ele>
        <time>2015-08-30T13:08:54Z</time>
      </trkpt>
      <trkpt lat="45.66062" lon="5.82128">
        <ele>1482.49</ele>
        <time>2015-08-30T13:09:18Z</time>
      </trkpt>
      <trkpt lat="45.66063" lon="5.82132">
        <ele>1482.49</ele>
        <time>2015-08-30T13:09:39Z</time>
      </trkpt>
      <trkpt lat="45.66063" lon="5.82134">
        <ele>1482.97</ele>
        <time>2015-08-30T13:09:50Z</time>
      </trkpt>
      <trkpt lat="45.66058" lon="5.82131">
        <ele>1482.01</ele>
        <time>2015-08-30T13:10:06Z</time>
      </trkpt>
      <trkpt lat="45.66049" lon="5.82122">
        <ele>1481.05</ele>
        <time>2015-08-30T13:10:18Z</time>
      </trkpt>
      <trkpt lat="45.66038" lon="5.8211">
        <ele>1480.09</ele>
        <time>2015-08-30T13:10:34Z</time>
      </trkpt>
      <trkpt lat="45.66029" lon="5.82095">
        <ele>1477.68</ele>
        <time>2015-08-30T13:10:48Z</time>
      </trkpt>
      <trkpt lat="45.66029" lon="5.82094">
        <ele>1482.49</ele>
        <time>2015-08-30T13:10:49Z</time>
      </trkpt>
      <trkpt lat="45.66026" lon="5.82089">
        <ele>1479.13</ele>
        <time>2015-08-30T13:10:53Z</time>
      </trkpt>
      <trkpt lat="45.66022" lon="5.82079">
        <ele>1479.13</ele>
        <time>2015-08-30T13:11:01Z</time>
      </trkpt>
      <trkpt lat="45.66012" lon="5.82068">
        <ele>1478.65</ele>
        <time>2015-08-30T13:11:15Z</time>
      </trkpt>
      <trkpt lat="45.65999" lon="5.82058">
        <ele>1477.68</ele>
        <time>2015-08-30T13:11:29Z</time>
      </trkpt>
      <trkpt lat="45.65995" lon="5.82056">
        <ele>1478.16</ele>
        <time>2015-08-30T13:11:33Z</time>
      </trkpt>
      <trkpt lat="45.65978" lon="5.82055">
        <ele>1477.68</ele>
        <time>2015-08-30T13:11:50Z</time>
      </trkpt>
      <trkpt lat="45.6597" lon="5.82057">
        <ele>1477.68</ele>
        <time>2015-08-30T13:12:01Z</time>
      </trkpt>
      <trkpt lat="45.65958" lon="5.82066">
        <ele>1475.76</ele>
        <time>2015-08-30T13:12:16Z</time>
      </trkpt>
      <trkpt lat="45.65947" lon="5.82076">
        <ele>1475.76</ele>
        <time>2015-08-30T13:12:31Z</time>
      </trkpt>
      <trkpt lat="45.65929" lon="5.82098">
        <ele>1474.8</ele>
        <time>2015-08-30T13:12:53Z</time>
      </trkpt>
      <trkpt lat="45.65921" lon="5.82104">
        <ele>1473.36</ele>
        <time>2015-08-30T13:12:59Z</time>
      </trkpt>
      <trkpt lat="45.65907" lon="5.8211">
        <ele>1472.88</ele>
        <time>2015-08-30T13:13:14Z</time>
      </trkpt>
      <trkpt lat="45.65894" lon="5.82112">
        <ele>1472.4</ele>
        <time>2015-08-30T13:13:26Z</time>
      </trkpt>
      <trkpt lat="45.65883" lon="5.82112">
        <ele>1471.44</ele>
        <time>2015-08-30T13:13:40Z</time>
      </trkpt>
      <trkpt lat="45.65871" lon="5.82108">
        <ele>1469.99</ele>
        <time>2015-08-30T13:13:54Z</time>
      </trkpt>
      <trkpt lat="45.65856" lon="5.82104">
        <ele>1470.47</ele>
        <time>2015-08-30T13:14:08Z</time>
      </trkpt>
      <trkpt lat="45.65843" lon="5.82117">
        <ele>1472.4</ele>
        <time>2015-08-30T13:14:25Z</time>
      </trkpt>
      <trkpt lat="45.65837" lon="5.82127">
        <ele>1472.88</ele>
        <time>2015-08-30T13:14:39Z</time>
      </trkpt>
      <trkpt lat="45.65838" lon="5.82128">
        <ele>1472.4</ele>
        <time>2015-08-30T13:15:02Z</time>
      </trkpt>
      <trkpt lat="45.65838" lon="5.82121">
        <ele>1472.4</ele>
        <time>2015-08-30T13:15:25Z</time>
      </trkpt>
    </trkseg>
  </trk>
</gpx>